Time;durP1;ratioP1;P1;durP2;ratioP2;P2;SDS_P1;SDS_P2;PMS_P1;PMS_P2;Temp;Humidity;BMP_temperature;BMP_pressure;BME280_temperature;BME280_humidity;BME280_pressure;Samples;Min_cycle;Max_cycle;Signal;HPM_P1;HPM_P2
2021/03/01 00:00:46;;;;;;;80.78;13.43;;;;;;;;;;5067672;28;20306;-70
2021/03/01 00:03:12;;;;;;;93.43;15.45;;;;;;;;;;5068936;28;20041;-70
2021/03/01 00:05:38;;;;;;;105.03;16.23;;;;;;;;;;5069241;28;20052;-69
2021/03/01 00:08:05;;;;;;;98.53;14.60;;;;;;;;;;5069441;28;20754;-69
2021/03/01 00:10:31;;;;;;;90.28;13.80;;;;;;;;;;5068423;28;20051;-69
2021/03/01 00:12:58;;;;;;;99.80;14.35;;;;;;;;;;5068304;28;20110;-69
2021/03/01 00:15:24;;;;;;;86.57;14.02;;;;;;;;;;5067115;28;20036;-69
2021/03/01 00:17:50;;;;;;;99.72;14.35;;;;;;;;;;5068583;28;20464;-69
2021/03/01 00:20:17;;;;;;;99.00;16.77;;;;;;;;;;5069680;28;20131;-69
2021/03/01 00:22:44;;;;;;;88.45;15.30;;;;;;;;;;5069944;28;20037;-69
2021/03/01 00:25:11;;;;;;;127.38;18.15;;;;;;;;;;5067743;28;20055;-70
2021/03/01 00:27:37;;;;;;;88.45;14.48;;;;;;;;;;5069193;28;20075;-70
2021/03/01 00:30:05;;;;;;;102.75;18.90;;;;;;;;;;5083009;28;20141;-70
2021/03/01 00:32:31;;;;;;;121.82;18.27;;;;;;;;;;5068029;28;20044;-69
2021/03/01 00:34:57;;;;;;;105.03;17.07;;;;;;;;;;5069697;28;20127;-69
2021/03/01 00:37:24;;;;;;;106.78;16.83;;;;;;;;;;5069605;28;20055;-69
2021/03/01 00:39:50;;;;;;;84.72;15.38;;;;;;;;;;5067310;28;20052;-69
2021/03/01 00:42:16;;;;;;;116.82;17.92;;;;;;;;;;5068826;28;20045;-71
2021/03/01 00:44:42;;;;;;;92.93;16.00;;;;;;;;;;5069337;28;20188;-69
2021/03/01 00:47:08;;;;;;;113.20;16.20;;;;;;;;;;5067955;28;20047;-70
2021/03/01 00:49:36;;;;;;;98.05;18.70;;;;;;;;;;5068618;28;20052;-70
2021/03/01 00:52:02;;;;;;;118.25;18.75;;;;;;;;;;5067913;28;20106;-69
2021/03/01 00:54:28;;;;;;;151.70;22.15;;;;;;;;;;5065173;28;20052;-70
2021/03/01 00:56:54;;;;;;;137.60;20.65;;;;;;;;;;5069630;28;20040;-69
2021/03/01 00:59:21;;;;;;;153.45;22.20;;;;;;;;;;5068917;28;20041;-69
2021/03/01 01:02:03;;;;;;;148.40;22.55;;;;;;;;;;5065925;28;20045;-69
2021/03/01 01:04:30;;;;;;;160.75;25.48;;;;;;;;;;5064823;28;20097;-70
2021/03/01 01:06:57;;;;;;;141.25;24.13;;;;;;;;;;5068252;28;20036;-69
2021/03/01 01:09:24;;;;;;;185.57;26.63;;;;;;;;;;5065894;28;20722;-70
2021/03/01 01:11:50;;;;;;;163.35;27.42;;;;;;;;;;5067670;28;20052;-69
2021/03/01 01:14:16;;;;;;;250.77;34.67;;;;;;;;;;5069164;28;20113;-69
2021/03/01 01:16:43;;;;;;;212.77;31.13;;;;;;;;;;5066824;28;20060;-69
2021/03/01 01:19:09;;;;;;;240.85;30.23;;;;;;;;;;5067076;28;20036;-69
2021/03/01 01:21:36;;;;;;;261.35;33.33;;;;;;;;;;5068512;28;20102;-70
2021/03/01 01:24:02;;;;;;;304.92;37.22;;;;;;;;;;5068559;28;20052;-69
2021/03/01 01:26:29;;;;;;;270.02;34.90;;;;;;;;;;5068553;28;20102;-69
2021/03/01 01:28:55;;;;;;;298.88;36.20;;;;;;;;;;5067714;28;20056;-69
2021/03/01 01:31:21;;;;;;;408.77;38.65;;;;;;;;;;5067473;28;20048;-69
2021/03/01 01:33:48;;;;;;;188.20;26.27;;;;;;;;;;5069713;28;20041;-69
2021/03/01 01:36:14;;;;;;;398.08;41.70;;;;;;;;;;5067739;28;20072;-69
2021/03/01 01:38:51;;;;;;;362.40;37.63;;;;;;;;;;5067849;28;20052;-69
2021/03/01 01:41:17;;;;;;;382.75;38.50;;;;;;;;;;5065851;28;20044;-69
2021/03/01 01:43:43;;;;;;;324.08;34.13;;;;;;;;;;5068818;28;20574;-69
2021/03/01 01:46:10;;;;;;;466.23;41.42;;;;;;;;;;5067046;28;20039;-69
2021/03/01 01:48:36;;;;;;;416.55;38.55;;;;;;;;;;5068109;28;20044;-69
2021/03/01 01:51:02;;;;;;;287.13;32.38;;;;;;;;;;5066325;28;20528;-69
2021/03/01 01:53:28;;;;;;;276.90;30.70;;;;;;;;;;5066194;28;20052;-70
2021/03/01 01:55:55;;;;;;;494.95;43.17;;;;;;;;;;5069328;28;20679;-69
2021/03/01 01:58:22;;;;;;;310.00;34.28;;;;;;;;;;5067781;28;20056;-69
2021/03/01 02:00:48;;;;;;;450.52;41.92;;;;;;;;;;5067985;28;20389;-70
2021/03/01 02:03:18;;;;;;;592.57;46.97;;;;;;;;;;5065787;28;20072;-70
2021/03/01 02:05:46;;;;;;;453.05;39.00;;;;;;;;;;5063779;28;20753;-69
2021/03/01 02:08:15;;;;;;;459.52;39.15;;;;;;;;;;5070203;28;20044;-69
2021/03/01 02:10:52;;;;;;;307.98;34.67;;;;;;;;;;5066468;28;20145;-69
2021/03/01 02:13:30;;;;;;;431.75;36.35;;;;;;;;;;5069156;28;20094;-69
2021/03/01 02:15:56;;;;;;;;;;;;;;;;;;5066358;28;20064;-69
2021/03/01 02:18:23;;;;;;;424.30;33.35;;;;;;;;;;5065460;28;19931;-69
2021/03/01 02:20:50;;;;;;;572.05;42.60;;;;;;;;;;5068044;28;20060;-69
2021/03/01 02:23:16;;;;;;;461.38;37.22;;;;;;;;;;5067404;28;20122;-69
2021/03/01 02:26:08;;;;;;;587.55;42.80;;;;;;;;;;5065436;28;20524;-69
2021/03/01 02:28:39;;;;;;;657.90;46.38;;;;;;;;;;5060205;28;20055;-68
2021/03/01 02:31:06;;;;;;;558.47;43.22;;;;;;;;;;5068505;28;20041;-69
2021/03/01 02:33:35;;;;;;;613.50;45.25;;;;;;;;;;5066068;28;20119;-69
2021/03/01 02:36:05;;;;;;;683.35;44.13;;;;;;;;;;5068051;28;20416;-69
2021/03/01 02:38:32;;;;;;;564.40;40.83;;;;;;;;;;5068047;28;20037;-69
2021/03/01 02:40:59;;;;;;;497.42;36.10;;;;;;;;;;5063686;28;20048;-69
2021/03/01 02:43:27;;;;;;;329.73;28.85;;;;;;;;;;5067193;28;20399;-69
2021/03/01 02:45:53;;;;;;;339.02;33.38;;;;;;;;;;5066692;28;20048;-69
2021/03/01 02:48:20;;;;;;;314.17;29.55;;;;;;;;;;5068029;28;20040;-69
2021/03/01 02:50:52;;;;;;;562.50;40.97;;;;;;;;;;5071096;28;20454;-69
2021/03/01 02:53:19;;;;;;;562.58;42.75;;;;;;;;;;5072186;28;20044;-69
2021/03/01 02:55:48;;;;;;;513.72;37.17;;;;;;;;;;5071195;28;20036;-69
2021/03/01 02:58:18;;;;;;;438.85;32.17;;;;;;;;;;5071346;28;20055;-69
2021/03/01 03:00:45;;;;;;;310.08;25.77;;;;;;;;;;5072107;28;20051;-69
2021/03/01 03:03:12;;;;;;;409.52;31.65;;;;;;;;;;5070062;28;20116;-69
2021/03/01 03:05:42;;;;;;;527.45;38.90;;;;;;;;;;5071220;28;20072;-69
2021/03/01 03:08:11;;;;;;;437.67;34.10;;;;;;;;;;5071484;28;20048;-69
2021/03/01 03:10:37;;;;;;;;;;;;;;;;;;5072045;28;20579;-69
2021/03/01 03:13:04;;;;;;;335.33;25.90;;;;;;;;;;5068657;28;19925;-69
2021/03/01 03:15:31;;;;;;;316.77;27.80;;;;;;;;;;5069498;28;20036;-69
2021/03/01 03:17:58;;;;;;;419.45;31.88;;;;;;;;;;5070787;28;20037;-69
2021/03/01 03:20:26;;;;;;;401.88;29.33;;;;;;;;;;5070310;28;20036;-69
2021/03/01 03:22:52;;;;;;;406.38;34.92;;;;;;;;;;5069345;28;20051;-69
2021/03/01 03:25:19;;;;;;;446.35;34.50;;;;;;;;;;5071158;28;20040;-69
2021/03/01 03:27:45;;;;;;;410.55;32.30;;;;;;;;;;5070430;28;20503;-69
2021/03/01 03:30:13;;;;;;;508.35;32.67;;;;;;;;;;5071803;28;20044;-69
2021/03/01 03:32:39;;;;;;;462.38;30.85;;;;;;;;;;5071422;28;20062;-69
2021/03/01 03:35:07;;;;;;;415.15;28.92;;;;;;;;;;5069180;28;20049;-69
2021/03/01 03:37:39;;;;;;;476.35;31.27;;;;;;;;;;5070152;28;20570;-69
2021/03/01 03:40:06;;;;;;;337.63;24.88;;;;;;;;;;5069556;28;20114;-69
2021/03/01 03:42:33;;;;;;;384.63;28.67;;;;;;;;;;5068873;28;20115;-69
2021/03/01 03:45:00;;;;;;;336.83;26.52;;;;;;;;;;5068695;28;20048;-69
2021/03/01 03:47:28;;;;;;;323.75;25.83;;;;;;;;;;5069092;28;20037;-69
2021/03/01 03:49:55;;;;;;;342.70;27.42;;;;;;;;;;5070892;28;20041;-69
2021/03/01 03:52:24;;;;;;;404.90;27.87;;;;;;;;;;5069309;28;20036;-69
2021/03/01 03:54:51;;;;;;;474.05;31.75;;;;;;;;;;5067347;28;20059;-69
2021/03/01 03:57:22;;;;;;;408.85;25.60;;;;;;;;;;5067890;28;20048;-69
2021/03/01 03:59:50;;;;;;;364.92;27.83;;;;;;;;;;5069740;28;20275;-69
2021/03/01 04:02:17;;;;;;;310.48;25.65;;;;;;;;;;5067598;28;20045;-69
2021/03/01 04:04:44;;;;;;;;;;;;;;;;;;5069337;28;20087;-69
2021/03/01 04:07:10;;;;;;;379.48;26.77;;;;;;;;;;5070618;28;20334;-69
2021/03/01 04:09:39;;;;;;;300.40;22.88;;;;;;;;;;5068731;28;20044;-69
2021/03/01 04:12:06;;;;;;;315.63;25.42;;;;;;;;;;5068167;28;20041;-69
2021/03/01 04:14:32;;;;;;;237.07;23.02;;;;;;;;;;5069789;28;20990;-69
2021/03/01 04:16:59;;;;;;;380.27;29.83;;;;;;;;;;5069828;28;20045;-70
2021/03/01 04:19:26;;;;;;;;;;;;;;;;;;5068500;28;20051;-69
2021/03/01 04:21:54;;;;;;;187.00;20.35;;;;;;;;;;5067186;28;19963;-69
2021/03/01 04:24:20;;;;;;;;;;;;;;;;;;5070227;28;20123;-70
2021/03/01 04:26:48;;;;;;;122.60;17.02;;;;;;;;;;5070406;28;19924;-69
2021/03/01 04:29:15;;;;;;;141.30;18.95;;;;;;;;;;5068689;28;20102;-69
2021/03/01 04:31:43;;;;;;;111.85;18.30;;;;;;;;;;5069625;28;20536;-69
2021/03/01 04:34:10;;;;;;;98.90;16.83;;;;;;;;;;5068561;28;20469;-69
2021/03/01 04:36:36;;;;;;;114.93;18.43;;;;;;;;;;5068347;28;20456;-69
2021/03/01 04:39:04;;;;;;;117.68;17.85;;;;;;;;;;5068801;28;20545;-70
2021/03/01 04:41:30;;;;;;;155.30;18.50;;;;;;;;;;5069429;28;20044;-69
2021/03/01 04:43:57;;;;;;;157.98;18.63;;;;;;;;;;5066624;28;20048;-69
2021/03/01 04:46:23;;;;;;;184.15;19.73;;;;;;;;;;5067458;28;20043;-69
2021/03/01 04:48:50;;;;;;;320.23;22.65;;;;;;;;;;5066660;28;20048;-69
2021/03/01 04:51:16;;;;;;;376.90;26.43;;;;;;;;;;5065211;28;20047;-69
2021/03/01 04:53:43;;;;;;;370.27;26.27;;;;;;;;;;5068760;28;20044;-69
2021/03/01 04:56:10;;;;;;;269.17;24.40;;;;;;;;;;5068603;28;20048;-69
2021/03/01 04:58:37;;;;;;;392.10;26.92;;;;;;;;;;5067627;28;20043;-69
2021/03/01 05:01:03;;;;;;;313.08;24.17;;;;;;;;;;5067270;28;20094;-69
2021/03/01 05:03:32;;;;;;;406.95;29.58;;;;;;;;;;5066203;28;20036;-69
2021/03/01 05:06:00;;;;;;;248.15;21.95;;;;;;;;;;5066896;28;20449;-69
2021/03/01 05:08:27;;;;;;;399.15;28.08;;;;;;;;;;5068969;28;20568;-69
2021/03/01 05:10:55;;;;;;;247.13;19.17;;;;;;;;;;5068209;28;20064;-69
2021/03/01 05:13:21;;;;;;;313.00;23.92;;;;;;;;;;5066085;28;20068;-70
2021/03/01 05:15:47;;;;;;;488.70;32.53;;;;;;;;;;5068979;28;20123;-69
2021/03/01 05:18:13;;;;;;;377.45;27.48;;;;;;;;;;5067836;28;20042;-69
2021/03/01 05:20:39;;;;;;;288.40;24.42;;;;;;;;;;5068496;28;20066;-69
2021/03/01 05:23:06;;;;;;;315.27;26.00;;;;;;;;;;5065157;28;20052;-70
2021/03/01 05:25:32;;;;;;;533.65;33.70;;;;;;;;;;5068625;28;20115;-69
2021/03/01 05:27:59;;;;;;;538.97;33.00;;;;;;;;;;5067937;28;20080;-69
2021/03/01 05:30:26;;;;;;;448.52;29.35;;;;;;;;;;5066532;28;20041;-69
2021/03/01 05:32:53;;;;;;;414.02;28.40;;;;;;;;;;5067120;28;20165;-69
2021/03/01 05:35:19;;;;;;;486.77;29.70;;;;;;;;;;5068372;28;20118;-69
2021/03/01 05:37:45;;;;;;;409.80;28.35;;;;;;;;;;5069438;28;20044;-70
2021/03/01 05:40:12;;;;;;;369.92;25.23;;;;;;;;;;5066489;28;20113;-69
2021/03/01 05:42:38;;;;;;;619.20;36.40;;;;;;;;;;5067402;28;20040;-69
2021/03/01 05:45:06;;;;;;;504.63;30.95;;;;;;;;;;5066057;28;20130;-69
2021/03/01 05:47:34;;;;;;;790.08;42.42;;;;;;;;;;5067598;28;20044;-69
2021/03/01 05:50:01;;;;;;;348.55;26.35;;;;;;;;;;5067235;28;20047;-69
2021/03/01 05:52:28;;;;;;;434.88;29.38;;;;;;;;;;5068448;28;20119;-69
2021/03/01 05:54:54;;;;;;;146.65;20.95;;;;;;;;;;5065973;28;20048;-69
2021/03/01 05:57:22;;;;;;;278.00;24.83;;;;;;;;;;5065946;28;20046;-69
2021/03/01 05:59:48;;;;;;;;;;;;;;;;;;5068086;28;20055;-69
2021/03/01 06:02:15;;;;;;;401.23;26.77;;;;;;;;;;5067077;28;19950;-69
2021/03/01 06:04:42;;;;;;;540.13;33.67;;;;;;;;;;5067791;28;20053;-69
2021/03/01 06:07:08;;;;;;;568.85;36.08;;;;;;;;;;5068964;28;20119;-69
2021/03/01 06:09:35;;;;;;;304.30;23.63;;;;;;;;;;5067989;28;20047;-69
2021/03/01 06:12:01;;;;;;;512.05;30.27;;;;;;;;;;5067886;28;20037;-69
2021/03/01 06:14:27;;;;;;;378.90;25.83;;;;;;;;;;5067508;28;20123;-70
2021/03/01 06:17:13;;;;;;;436.95;27.88;;;;;;;;;;5068394;28;20047;-70
2021/03/01 06:19:43;;;;;;;410.77;27.83;;;;;;;;;;5066214;28;20131;-69
2021/03/01 06:22:10;;;;;;;307.63;24.80;;;;;;;;;;5068738;28;20059;-69
2021/03/01 06:24:36;;;;;;;537.08;34.58;;;;;;;;;;5070339;28;20080;-69
2021/03/01 06:27:02;;;;;;;362.50;27.27;;;;;;;;;;5070993;28;20553;-69
2021/03/01 06:29:29;;;;;;;416.85;27.70;;;;;;;;;;5070782;28;20071;-69
2021/03/01 06:31:55;;;;;;;404.17;28.63;;;;;;;;;;5071792;28;20044;-69
2021/03/01 06:34:27;;;;;;;177.98;19.88;;;;;;;;;;5071213;28;20051;-69
2021/03/01 06:37:09;;;;;;;113.25;18.65;;;;;;;;;;5072176;28;20154;-69
2021/03/01 06:39:38;;;;;;;175.65;19.92;;;;;;;;;;5071184;28;20126;-70
2021/03/01 06:42:21;;;;;;;194.55;24.00;;;;;;;;;;5070427;28;20036;-69
2021/03/01 06:44:47;;;;;;;246.40;23.23;;;;;;;;;;5072666;28;20118;-69
2021/03/01 06:47:14;;;;;;;213.43;22.10;;;;;;;;;;5071336;28;20037;-69
2021/03/01 06:49:44;;;;;;;143.13;21.67;;;;;;;;;;5068746;28;20041;-69
2021/03/01 06:52:30;;;;;;;74.18;16.10;;;;;;;;;;5069803;28;20128;-69
2021/03/01 06:55:07;;;;;;;82.93;15.98;;;;;;;;;;5068356;28;20094;-69
2021/03/01 06:57:34;;;;;;;137.27;18.60;;;;;;;;;;5071342;28;20041;-69
2021/03/01 07:00:01;;;;;;;92.38;15.00;;;;;;;;;;5069592;28;20040;-69
2021/03/01 07:02:40;;;;;;;72.20;15.43;;;;;;;;;;5068580;28;20048;-69
2021/03/01 07:05:07;;;;;;;83.60;14.38;;;;;;;;;;5068586;28;20040;-69
2021/03/01 07:07:34;;;;;;;59.23;13.90;;;;;;;;;;5070534;28;20543;-69
2021/03/01 07:10:02;;;;;;;59.38;12.68;;;;;;;;;;5070397;28;20918;-69
2021/03/01 07:12:41;;;;;;;59.13;12.70;;;;;;;;;;5071054;28;20479;-69
2021/03/01 07:15:08;;;;;;;62.08;13.43;;;;;;;;;;5070611;28;20048;-68
2021/03/01 07:17:40;;;;;;;58.10;12.15;;;;;;;;;;5066785;28;20033;-69
2021/03/01 07:20:08;;;;;;;60.60;12.77;;;;;;;;;;5066924;28;20436;-69
2021/03/01 07:22:34;;;;;;;;;;;;;;;;;;5067059;28;20066;-69
2021/03/01 07:25:01;;;;;;;48.70;11.35;;;;;;;;;;5067655;28;19924;-69
2021/03/01 07:27:28;;;;;;;44.23;11.20;;;;;;;;;;5067533;28;20044;-69
2021/03/01 07:29:57;;;;;;;53.17;10.52;;;;;;;;;;5070108;28;20052;-69
2021/03/01 07:32:27;;;;;;;48.45;10.77;;;;;;;;;;5072490;28;20105;-69
2021/03/01 07:34:54;;;;;;;46.65;10.13;;;;;;;;;;5069426;28;20500;-69
2021/03/01 07:37:20;;;;;;;40.90;9.43;;;;;;;;;;5069193;28;20172;-69
2021/03/01 07:39:46;;;;;;;51.80;10.38;;;;;;;;;;5071508;28;20047;-68
2021/03/01 07:42:13;;;;;;;62.25;10.35;;;;;;;;;;5068163;28;20047;-67
2021/03/01 07:44:40;;;;;;;47.97;9.80;;;;;;;;;;5068677;28;20052;-68
2021/03/01 07:47:07;;;;;;;46.92;9.68;;;;;;;;;;5067300;28;20063;-68
2021/03/01 07:49:48;;;;;;;42.85;8.85;;;;;;;;;;5066501;28;20111;-68
2021/03/01 07:52:18;;;;;;;40.30;8.02;;;;;;;;;;5068741;28;20094;-68
2021/03/01 07:54:55;;;;;;;33.65;7.68;;;;;;;;;;5069461;28;20041;-68
2021/03/01 07:57:22;;;;;;;27.75;7.65;;;;;;;;;;5067985;28;20098;-68
2021/03/01 07:59:48;;;;;;;28.13;6.40;;;;;;;;;;5068528;28;20049;-68
2021/03/01 08:02:16;;;;;;;30.70;6.68;;;;;;;;;;5070348;28;20098;-68
2021/03/01 08:04:42;;;;;;;34.42;6.60;;;;;;;;;;5064944;28;20044;-68
2021/03/01 08:07:09;;;;;;;25.17;7.13;;;;;;;;;;5069416;28;20484;-68
2021/03/01 08:09:46;;;;;;;25.77;5.97;;;;;;;;;;5070044;28;20610;-68
2021/03/01 08:12:39;;;;;;;36.47;6.05;;;;;;;;;;5068673;28;20057;-68
2021/03/01 08:15:08;;;;;;;31.25;6.15;;;;;;;;;;5032984;28;20056;-68
2021/03/01 08:17:38;;;;;;;35.25;5.53;;;;;;;;;;5067298;28;20048;-68
2021/03/01 08:20:11;;;;;;;22.58;5.68;;;;;;;;;;5068284;28;20074;-68
2021/03/01 08:22:56;;;;;;;21.05;5.68;;;;;;;;;;5066897;28;20090;-68
2021/03/01 08:25:43;;;;;;;23.63;5.22;;;;;;;;;;5065081;28;20566;-68
2021/03/01 08:28:15;;;;;;;26.25;4.88;;;;;;;;;;5069198;28;20043;-68
2021/03/01 08:30:41;;;;;;;29.98;5.43;;;;;;;;;;5066404;28;20573;-68
2021/03/01 08:33:09;;;;;;;;;;;;;;;;;;5069255;28;20045;-68
2021/03/01 08:35:36;;;;;;;23.65;4.50;;;;;;;;;;5069067;28;19963;-69
2021/03/01 08:38:03;;;;;;;;;;;;;;;;;;5067872;28;20233;-68
2021/03/01 08:40:29;;;;;;;26.83;4.78;;;;;;;;;;5065885;28;19974;-68
2021/03/01 08:43:00;;;;;;;31.88;5.28;;;;;;;;;;5067774;28;20045;-68
2021/03/01 08:45:43;;;;;;;17.38;4.28;;;;;;;;;;5069829;28;20033;-69
2021/03/01 08:48:16;;;;;;;26.05;4.43;;;;;;;;;;5064814;28;20462;-68
2021/03/01 08:50:43;;;;;;;30.52;4.78;;;;;;;;;;5067730;28;20055;-68
2021/03/01 08:53:18;;;;;;;17.25;4.07;;;;;;;;;;5064751;28;20037;-69
2021/03/01 08:55:45;;;;;;;28.65;4.97;;;;;;;;;;5068092;28;20129;-68
2021/03/01 08:58:12;;;;;;;22.88;4.13;;;;;;;;;;5070513;28;20041;-68
2021/03/01 09:00:46;;;;;;;18.73;3.80;;;;;;;;;;5069872;28;20044;-68
2021/03/01 09:03:13;;;;;;;15.63;3.63;;;;;;;;;;5064901;28;20365;-69
2021/03/01 09:05:41;;;;;;;24.15;4.07;;;;;;;;;;5068826;28;20044;-68
2021/03/01 09:08:08;;;;;;;26.13;3.88;;;;;;;;;;5068960;28;20050;-69
2021/03/01 09:10:35;;;;;;;17.00;3.08;;;;;;;;;;5068361;28;20497;-69
2021/03/01 09:13:02;;;;;;;19.33;3.40;;;;;;;;;;5067194;28;20063;-69
2021/03/01 09:15:28;;;;;;;21.35;3.20;;;;;;;;;;5066609;28;20048;-68
2021/03/01 09:17:55;;;;;;;19.50;3.22;;;;;;;;;;5067839;28;20072;-69
2021/03/01 09:20:22;;;;;;;15.27;3.10;;;;;;;;;;5065964;28;20066;-68
2021/03/01 09:22:48;;;;;;;19.50;3.17;;;;;;;;;;5068657;28;20496;-69
2021/03/01 09:25:27;;;;;;;17.10;3.08;;;;;;;;;;5067665;28;20036;-68
2021/03/01 09:27:57;;;;;;;15.82;2.97;;;;;;;;;;5069028;28;20036;-68
2021/03/01 09:30:24;;;;;;;16.20;2.92;;;;;;;;;;5067690;28;20455;-68
2021/03/01 09:32:54;;;;;;;18.83;3.13;;;;;;;;;;5067289;28;20094;-69
2021/03/01 09:35:21;;;;;;;16.13;2.83;;;;;;;;;;5067944;28;20040;-68
2021/03/01 09:38:02;;;;;;;11.57;2.13;;;;;;;;;;5067541;28;20387;-69
2021/03/01 09:40:29;;;;;;;15.60;3.05;;;;;;;;;;5069223;28;20139;-69
2021/03/01 09:43:03;;;;;;;16.08;3.40;;;;;;;;;;5067660;28;20579;-69
2021/03/01 09:45:35;;;;;;;10.98;2.70;;;;;;;;;;5067406;28;20040;-69
2021/03/01 09:48:05;;;;;;;11.48;2.92;;;;;;;;;;5066993;28;20048;-69
2021/03/01 09:50:36;;;;;;;17.95;3.33;;;;;;;;;;5067857;28;20041;-69
2021/03/01 09:53:03;;;;;;;9.73;3.45;;;;;;;;;;5065295;28;20057;-69
2021/03/01 09:55:29;;;;;;;12.60;2.65;;;;;;;;;;5067821;28;20045;-69
2021/03/01 09:57:55;;;;;;;11.23;2.78;;;;;;;;;;5066790;28;20090;-69
2021/03/01 10:00:27;;;;;;;11.55;2.80;;;;;;;;;;5072121;28;20178;-69
2021/03/01 10:02:57;;;;;;;11.45;2.42;;;;;;;;;;5064880;28;20116;-70
2021/03/01 10:05:24;;;;;;;13.68;2.60;;;;;;;;;;5070977;28;20054;-70
2021/03/01 10:07:58;;;;;;;8.83;2.80;;;;;;;;;;5072143;28;20147;-69
2021/03/01 10:10:25;;;;;;;14.00;2.33;;;;;;;;;;5072285;28;20040;-70
2021/03/01 10:12:51;;;;;;;9.98;2.40;;;;;;;;;;5072699;28;20036;-69
2021/03/01 10:15:20;;;;;;;10.57;2.90;;;;;;;;;;5072057;28;20041;-69
2021/03/01 10:17:46;;;;;;;9.00;2.28;;;;;;;;;;5070381;28;20113;-69
2021/03/01 10:20:14;;;;;;;6.70;2.05;;;;;;;;;;5069929;28;20076;-69
2021/03/01 10:23:03;;;;;;;10.25;1.73;;;;;;;;;;5071026;28;20094;-69
2021/03/01 10:25:37;;;;;;;11.60;2.25;;;;;;;;;;5071719;28;20070;-70
2021/03/01 10:28:05;;;;;;;8.40;2.20;;;;;;;;;;5070951;28;20060;-69
2021/03/01 10:30:31;;;;;;;;;;;;;;;;;;5071420;28;20041;-69
2021/03/01 10:33:05;;;;;;;9.65;2.17;;;;;;;;;;5071061;28;19928;-70
2021/03/01 10:35:32;;;;;;;6.75;1.98;;;;;;;;;;5070675;28;20048;-70
2021/03/01 10:38:08;;;;;;;7.33;2.10;;;;;;;;;;5070194;28;20386;-69
2021/03/01 10:40:36;;;;;;;13.27;2.38;;;;;;;;;;5071404;28;20040;-69
2021/03/01 10:43:11;;;;;;;9.45;2.78;;;;;;;;;;5072677;28;20048;-69
2021/03/01 10:45:41;;;;;;;9.70;2.00;;;;;;;;;;5069575;28;20064;-69
2021/03/01 10:48:08;;;;;;;11.27;2.22;;;;;;;;;;5070928;28;20055;-69
2021/03/01 10:50:34;;;;;;;13.73;2.35;;;;;;;;;;5071108;28;20041;-70
2021/03/01 10:53:00;;;;;;;7.43;1.80;;;;;;;;;;5067079;28;20048;-70
2021/03/01 10:55:26;;;;;;;8.43;2.05;;;;;;;;;;5070426;28;20115;-70
2021/03/01 10:57:52;;;;;;;10.23;2.28;;;;;;;;;;5070976;28;20562;-70
2021/03/01 11:00:19;;;;;;;9.18;2.25;;;;;;;;;;5069849;28;20045;-70
2021/03/01 11:02:45;;;;;;;12.82;2.00;;;;;;;;;;5070597;28;20037;-70
2021/03/01 11:05:12;;;;;;;6.55;1.85;;;;;;;;;;5070637;28;20036;-70
2021/03/01 11:07:38;;;;;;;10.95;2.65;;;;;;;;;;5069128;28;20045;-70
2021/03/01 11:10:05;;;;;;;11.27;2.88;;;;;;;;;;5069355;28;20048;-70
2021/03/01 11:12:31;;;;;;;11.77;2.60;;;;;;;;;;5069415;28;20545;-70
2021/03/01 11:14:57;;;;;;;11.80;2.60;;;;;;;;;;5069999;28;20045;-70
2021/03/01 11:17:23;;;;;;;9.88;2.17;;;;;;;;;;5068169;28;20090;-70
2021/03/01 11:19:50;;;;;;;11.68;2.83;;;;;;;;;;5071090;28;20098;-70
2021/03/01 11:22:17;;;;;;;12.52;3.00;;;;;;;;;;5069645;28;20049;-70
2021/03/01 11:24:44;;;;;;;12.50;2.60;;;;;;;;;;5070489;28;20058;-71
2021/03/01 11:27:10;;;;;;;14.57;3.00;;;;;;;;;;5066982;28;20063;-70
2021/03/01 11:29:36;;;;;;;14.32;2.65;;;;;;;;;;5068858;28;20225;-70
2021/03/01 11:32:03;;;;;;;16.33;2.67;;;;;;;;;;5068968;28;20052;-70
2021/03/01 11:34:30;;;;;;;11.30;2.63;;;;;;;;;;5067854;28;20040;-70
2021/03/01 11:36:56;;;;;;;10.32;2.97;;;;;;;;;;5071487;28;20114;-70
2021/03/01 11:39:22;;;;;;;8.95;2.45;;;;;;;;;;5068823;28;20104;-70
2021/03/01 11:41:49;;;;;;;10.60;2.70;;;;;;;;;;5070213;28;20055;-70
2021/03/01 11:44:15;;;;;;;11.60;2.92;;;;;;;;;;5071414;28;20043;-70
2021/03/01 11:46:41;;;;;;;12.30;3.22;;;;;;;;;;5071132;28;20044;-70
2021/03/01 11:49:08;;;;;;;11.82;2.55;;;;;;;;;;5069160;28;20052;-70
2021/03/01 11:51:34;;;;;;;24.15;3.15;;;;;;;;;;5068941;28;20068;-70
2021/03/01 11:54:01;;;;;;;11.50;2.60;;;;;;;;;;5069231;28;20060;-70
2021/03/01 11:56:27;;;;;;;14.98;2.95;;;;;;;;;;5070605;28;20044;-70
2021/03/01 11:58:54;;;;;;;10.00;2.63;;;;;;;;;;5070296;28;20504;-70
2021/03/01 12:01:20;;;;;;;16.00;3.08;;;;;;;;;;5070480;28;20052;-70
2021/03/01 12:03:47;;;;;;;12.88;2.80;;;;;;;;;;5068200;28;20123;-70
2021/03/01 12:06:13;;;;;;;8.45;2.78;;;;;;;;;;5069098;28;20044;-71
2021/03/01 12:08:40;;;;;;;11.60;3.20;;;;;;;;;;5065704;28;20115;-71
2021/03/01 12:11:06;;;;;;;14.02;3.40;;;;;;;;;;5069104;28;20044;-70
2021/03/01 12:13:33;;;;;;;12.40;2.92;;;;;;;;;;5069074;28;20090;-71
2021/03/01 12:15:59;;;;;;;10.75;3.28;;;;;;;;;;5070506;28;20044;-70
2021/03/01 12:18:26;;;;;;;7.15;2.92;;;;;;;;;;5067066;28;20047;-71
2021/03/01 12:20:53;;;;;;;13.68;2.88;;;;;;;;;;5068952;28;20048;-71
2021/03/01 12:23:19;;;;;;;14.02;3.28;;;;;;;;;;5066207;28;20036;-71
2021/03/01 12:25:45;;;;;;;9.07;2.35;;;;;;;;;;5067495;28;20416;-71
2021/03/01 12:28:12;;;;;;;10.45;3.30;;;;;;;;;;5070115;28;20036;-71
2021/03/01 12:30:38;;;;;;;14.13;2.67;;;;;;;;;;5069115;28;20569;-71
2021/03/01 12:33:08;;;;;;;12.52;3.08;;;;;;;;;;5069004;28;20215;-71
2021/03/01 12:35:34;;;;;;;11.65;2.97;;;;;;;;;;5068759;28;20044;-71
2021/03/01 12:38:01;;;;;;;11.65;2.63;;;;;;;;;;5068643;28;20048;-71
2021/03/01 12:40:29;;;;;;;12.23;3.33;;;;;;;;;;5068092;28;20040;-71
2021/03/01 12:42:58;;;;;;;12.00;3.00;;;;;;;;;;5070168;28;20045;-71
2021/03/01 12:45:26;;;;;;;11.85;2.75;;;;;;;;;;5067891;28;20492;-71
2021/03/01 12:47:52;;;;;;;12.07;3.10;;;;;;;;;;5068153;28;20041;-71
2021/03/01 12:50:18;;;;;;;8.10;2.25;;;;;;;;;;5068573;28;20713;-72
2021/03/01 12:52:45;;;;;;;14.73;3.10;;;;;;;;;;5068469;28;20045;-71
2021/03/01 12:55:12;;;;;;;13.85;2.78;;;;;;;;;;5069762;28;20044;-71
2021/03/01 12:57:38;;;;;;;13.27;2.30;;;;;;;;;;5069011;28;20048;-71
2021/03/01 13:00:07;;;;;;;11.07;2.70;;;;;;;;;;5069110;28;20060;-71
2021/03/01 13:02:34;;;;;;;15.60;3.35;;;;;;;;;;5065789;28;20083;-71
2021/03/01 13:05:01;;;;;;;17.33;3.28;;;;;;;;;;5068504;28;20040;-71
2021/03/01 13:07:27;;;;;;;9.02;2.72;;;;;;;;;;5067625;28;20037;-71
2021/03/01 13:09:53;;;;;;;16.20;3.22;;;;;;;;;;5066745;28;20055;-71
2021/03/01 13:12:20;;;;;;;10.93;3.10;;;;;;;;;;5068655;28;20059;-71
2021/03/01 13:14:47;;;;;;;17.30;4.40;;;;;;;;;;5066275;28;20040;-71
2021/03/01 13:17:16;;;;;;;18.92;3.20;;;;;;;;;;5068994;28;20135;-71
2021/03/01 13:19:43;;;;;;;13.43;3.10;;;;;;;;;;5068670;28;20046;-71
2021/03/01 13:22:09;;;;;;;18.15;3.25;;;;;;;;;;5068180;28;20045;-72
2021/03/01 13:24:35;;;;;;;12.95;2.78;;;;;;;;;;5067186;28;20514;-71
2021/03/01 13:27:02;;;;;;;19.83;3.72;;;;;;;;;;5068012;28;20053;-72
2021/03/01 13:29:29;;;;;;;13.52;3.35;;;;;;;;;;5064639;28;20048;-72
2021/03/01 13:31:55;;;;;;;11.57;2.92;;;;;;;;;;5068216;28;20048;-72
2021/03/01 13:34:32;;;;;;;10.43;3.30;;;;;;;;;;5067976;28;20044;-71
2021/03/01 13:36:59;;;;;;;18.85;3.53;;;;;;;;;;5069087;28;20448;-71
2021/03/01 13:39:26;;;;;;;16.17;3.53;;;;;;;;;;5067629;28;20128;-71
2021/03/01 13:41:52;;;;;;;14.63;3.63;;;;;;;;;;5067766;28;20044;-72
2021/03/01 13:44:19;;;;;;;15.45;3.63;;;;;;;;;;5068628;28;20489;-72
2021/03/01 13:46:45;;;;;;;15.02;3.30;;;;;;;;;;5068436;28;20063;-72
2021/03/01 13:49:11;;;;;;;16.35;3.53;;;;;;;;;;5068863;28;20566;-72
2021/03/01 13:51:38;;;;;;;16.35;3.58;;;;;;;;;;5073567;28;20404;-72
2021/03/01 13:54:04;;;;;;;9.93;2.95;;;;;;;;;;5068411;28;20051;-72
2021/03/01 13:56:30;;;;;;;13.80;3.60;;;;;;;;;;5063213;28;20041;-72
2021/03/01 13:58:57;;;;;;;19.10;4.22;;;;;;;;;;5066958;28;20492;-72
2021/03/01 14:01:26;;;;;;;10.82;3.20;;;;;;;;;;5066782;28;20041;-72
2021/03/01 14:03:54;;;;;;;11.32;3.83;;;;;;;;;;5065510;28;20052;-72
2021/03/01 14:06:20;;;;;;;15.15;3.72;;;;;;;;;;5069402;28;20605;-72
2021/03/01 14:08:47;;;;;;;15.13;3.50;;;;;;;;;;5069092;28;20036;-73
2021/03/01 14:11:13;;;;;;;11.05;3.40;;;;;;;;;;5068821;28;20070;-72
2021/03/01 14:13:39;;;;;;;17.30;3.78;;;;;;;;;;5069495;28;20048;-72
2021/03/01 14:16:06;;;;;;;13.33;3.53;;;;;;;;;;5066893;28;20048;-72
2021/03/01 14:18:32;;;;;;;17.67;3.65;;;;;;;;;;5067647;28;20043;-72
2021/03/01 14:20:59;;;;;;;12.52;3.92;;;;;;;;;;5068867;28;20044;-72
2021/03/01 14:23:25;;;;;;;22.20;4.50;;;;;;;;;;5068453;28;20102;-72
2021/03/01 14:25:53;;;;;;;13.98;4.05;;;;;;;;;;5067451;28;20286;-71